Time;durP1;ratioP1;P1;durP2;ratioP2;P2;SDS_P1;SDS_P2;PMS_P1;PMS_P2;Temp;Humidity;BMP_temperature;BMP_pressure;BME280_temperature;BME280_humidity;BME280_pressure;Samples;Min_cycle;Max_cycle;Signal;HPM_P1;HPM_P2
2020/12/22 00:00:00;;;;;;;1.75;0.80;;;14.70;72.40;;;;;;2371420;53;21037;-73
2020/12/22 00:02:27;;;;;;;1.58;0.62;;;14.70;72.40;;;;;;2352039;53;21007;-73
2020/12/22 00:04:53;;;;;;;1.27;0.60;;;14.70;72.90;;;;;;2358596;53;21002;-73
2020/12/22 00:07:23;;;;;;;2.05;0.75;;;14.80;72.80;;;;;;2580452;53;20976;-73
2020/12/22 00:09:50;;;;;;;1.87;0.70;;;14.80;72.50;;;;;;2353389;53;20995;-73
2020/12/22 00:12:20;;;;;;;2.30;0.80;;;14.80;72.50;;;;;;2604771;52;20976;-74
2020/12/22 00:14:48;;;;;;;1.67;0.70;;;14.80;72.80;;;;;;2349179;53;20975;-73
2020/12/22 00:17:15;;;;;;;3.25;0.60;;;14.80;72.70;;;;;;2600828;52;20950;-73
2020/12/22 00:19:42;;;;;;;1.98;0.80;;;14.80;72.60;;;;;;2620033;52;20954;-73
2020/12/22 00:22:08;;;;;;;1.83;0.70;;;14.80;72.90;;;;;;2623703;52;20946;-72
2020/12/22 00:24:39;;;;;;;2.30;0.60;;;14.90;72.80;;;;;;2368203;53;20955;-72
2020/12/22 00:27:05;;;;;;;1.67;0.70;;;14.90;72.60;;;;;;2340777;54;20939;-71
2020/12/22 00:29:32;;;;;;;1.40;0.50;;;14.90;72.80;;;;;;2352550;54;20916;-71
2020/12/22 00:32:02;;;;;;;1.35;0.55;;;14.90;73.10;;;;;;2616078;52;21463;-71
2020/12/22 00:34:30;;;;;;;1.30;0.47;;;14.90;73.20;;;;;;2371570;53;20968;-72
2020/12/22 00:36:56;;;;;;;1.23;0.45;;;15.00;73.40;;;;;;2624506;52;20906;-73
2020/12/22 00:39:23;;;;;;;0.90;0.40;;;14.90;73.00;;;;;;2351950;53;20931;-73
2020/12/22 00:41:53;;;;;;;1.23;0.30;;;15.00;73.20;;;;;;2371976;53;20938;-73
2020/12/22 00:44:20;;;;;;;1.33;0.40;;;15.00;73.20;;;;;;2595366;52;20959;-73
2020/12/22 00:46:47;;;;;;;1.12;0.57;;;15.00;73.20;;;;;;2593758;52;20927;-73
2020/12/22 00:49:14;;;;;;;0.98;0.40;;;15.10;73.50;;;;;;2607420;52;21756;-72
2020/12/22 00:51:40;;;;;;;1.25;0.50;;;15.10;73.40;;;;;;2611287;52;21458;-72
2020/12/22 00:54:08;;;;;;;1.15;0.52;;;15.10;73.30;;;;;;2624374;52;20941;-72
2020/12/22 00:56:34;;;;;;;3.33;0.57;;;15.20;73.10;;;;;;2624055;52;20938;-73
2020/12/22 00:59:02;;;;;;;1.10;0.50;;;15.20;72.90;;;;;;2595129;52;20924;-73
2020/12/22 01:01:30;;;;;;;0.93;0.40;;;15.20;72.70;;;;;;2369720;53;21061;-73
2020/12/22 01:03:58;;;;;;;1.27;0.50;;;15.20;73.10;;;;;;2345527;54;21778;-73
2020/12/22 01:06:34;;;;;;;1.30;0.50;;;15.30;73.00;;;;;;2356732;53;20954;-73
2020/12/22 01:09:02;;;;;;;1.17;0.50;;;15.30;73.00;;;;;;2359240;53;21010;-73
2020/12/22 01:11:33;;;;;;;1.17;0.43;;;15.30;72.60;;;;;;2587310;52;20978;-73
2020/12/22 01:14:00;;;;;;;1.57;0.50;;;15.30;72.20;;;;;;2609463;52;21028;-72
2020/12/22 01:16:27;;;;;;;1.75;0.65;;;15.40;72.50;;;;;;2357349;53;21614;-72
2020/12/22 01:18:54;;;;;;;1.37;0.60;;;15.40;72.60;;;;;;2621493;52;20950;-73
2020/12/22 01:21:21;;;;;;;1.67;0.50;;;15.40;72.80;;;;;;2349996;53;21010;-73
2020/12/22 01:23:49;;;;;;;2.25;0.80;;;15.40;72.30;;;;;;2623776;52;21278;-73
2020/12/22 01:26:20;;;;;;;1.85;0.62;;;15.40;72.40;;;;;;2369295;53;20951;-73
2020/12/22 01:28:47;;;;;;;1.77;0.62;;;15.40;72.40;;;;;;2589894;53;21015;-73
2020/12/22 01:31:26;;;;;;;2.15;0.57;;;15.40;72.20;;;;;;2611154;52;20906;-73
2020/12/22 01:33:53;;;;;;;2.87;0.85;;;15.40;72.20;;;;;;2614710;52;21008;-72
2020/12/22 01:36:21;;;;;;;1.40;0.50;;;15.40;71.70;;;;;;2341243;53;20933;-71
2020/12/22 01:38:50;;;;;;;1.98;0.70;;;15.40;72.10;;;;;;2370509;53;20938;-73
2020/12/22 01:41:16;;;;;;;1.10;0.47;;;15.40;72.40;;;;;;2330944;54;21482;-73
2020/12/22 01:43:43;;;;;;;1.50;0.60;;;15.40;72.40;;;;;;2352564;53;21035;-72
2020/12/22 01:46:12;;;;;;;1.85;0.62;;;15.40;72.40;;;;;;2343419;53;20958;-71
2020/12/22 01:48:41;;;;;;;2.12;0.77;;;15.40;72.20;;;;;;2589342;52;20999;-73
2020/12/22 01:51:08;;;;;;;1.23;0.50;;;15.50;72.20;;;;;;2356894;53;20958;-72
2020/12/22 01:53:34;;;;;;;4.07;0.52;;;15.50;72.40;;;;;;2341831;54;20985;-73
2020/12/22 01:56:01;;;;;;;1.67;0.60;;;15.50;72.60;;;;;;2362189;53;21021;-73
2020/12/22 01:58:28;;;;;;;1.40;0.45;;;15.50;72.50;;;;;;2365610;53;21747;-72
2020/12/22 02:00:54;;;;;;;1.17;0.50;;;15.50;72.60;;;;;;2359392;53;20999;-72
2020/12/22 02:03:24;;;;;;;1.20;0.45;;;15.50;72.60;;;;;;2348312;54;21017;-72
2020/12/22 02:05:51;;;;;;;0.82;0.40;;;15.50;72.30;;;;;;2352378;54;20953;-71
2020/12/22 02:08:20;;;;;;;1.12;0.50;;;15.50;72.40;;;;;;2337940;54;21422;-72
2020/12/22 02:10:50;;;;;;;2.10;0.60;;;15.60;72.70;;;;;;2366068;53;20918;-72
2020/12/22 02:13:16;;;;;;;1.17;0.35;;;15.60;72.50;;;;;;2351607;53;21076;-72
2020/12/22 02:15:43;;;;;;;1.42;0.60;;;15.60;72.80;;;;;;2372108;53;20946;-72
2020/12/22 02:18:12;;;;;;;0.80;0.40;;;15.60;72.80;;;;;;2363576;53;21038;-72
2020/12/22 02:20:40;;;;;;;1.12;0.50;;;15.60;72.50;;;;;;2346575;54;20963;-72
2020/12/22 02:23:08;;;;;;;1.20;0.50;;;15.60;71.70;;;;;;2363564;53;20944;-73
2020/12/22 02:25:36;;;;;;;1.02;0.37;;;15.60;72.30;;;;;;2371595;53;21553;-73
2020/12/22 02:28:03;;;;;;;1.55;0.50;;;15.60;71.40;;;;;;2614405;52;21066;-73
2020/12/22 02:30:30;;;;;;;1.40;0.30;;;15.60;71.90;;;;;;2578919;52;21912;-72
2020/12/22 02:32:56;;;;;;;1.58;0.50;;;15.60;72.10;;;;;;2372279;53;20950;-72
2020/12/22 02:35:24;;;;;;;0.35;0.30;;;15.60;72.00;;;;;;2361743;53;20969;-72
2020/12/22 02:37:50;;;;;;;1.70;0.30;;;15.60;72.30;;;;;;2589322;52;20923;-72
2020/12/22 02:40:17;;;;;;;0.52;0.30;;;15.60;72.30;;;;;;2370906;53;21008;-71
2020/12/22 02:42:46;;;;;;;1.23;0.50;;;15.60;72.30;;;;;;2354708;53;21063;-72
2020/12/22 02:45:15;;;;;;;0.32;0.30;;;15.60;71.90;;;;;;2370728;53;20946;-72
2020/12/22 02:47:42;;;;;;;0.82;0.30;;;15.60;72.50;;;;;;2596355;52;20992;-71
2020/12/22 02:50:12;;;;;;;0.90;0.40;;;15.60;72.10;;;;;;2352528;53;20993;-72
2020/12/22 02:52:39;;;;;;;1.02;0.32;;;15.70;72.60;;;;;;2593289;52;21003;-72
2020/12/22 02:55:06;;;;;;;0.95;0.40;;;15.70;71.90;;;;;;2595723;52;20968;-71
2020/12/22 02:57:32;;;;;;;1.33;0.20;;;15.70;72.40;;;;;;2375040;53;20994;-72
2020/12/22 02:59:59;;;;;;;0.93;0.37;;;15.70;72.20;;;;;;2349133;53;20942;-72
2020/12/22 03:02:25;;;;;;;1.02;0.30;;;15.70;72.30;;;;;;2624124;52;21423;-72
2020/12/22 03:04:53;;;;;;;0.75;0.20;;;15.70;72.20;;;;;;2605299;52;20964;-72
2020/12/22 03:07:19;;;;;;;1.10;0.40;;;15.70;73.00;;;;;;2586316;52;20998;-72
2020/12/22 03:09:50;;;;;;;1.10;0.30;;;15.70;72.30;;;;;;2372257;53;21057;-72
2020/12/22 03:12:16;;;;;;;1.35;0.57;;;15.70;72.30;;;;;;2570840;53;21021;-71
2020/12/22 03:14:43;;;;;;;1.00;0.30;;;15.80;71.70;;;;;;2598341;52;20985;-71
2020/12/22 03:17:10;;;;;;;0.98;0.22;;;15.80;72.30;;;;;;2624236;52;20962;-71
2020/12/22 03:19:38;;;;;;;0.70;0.30;;;15.80;72.40;;;;;;2371561;53;21426;-72
2020/12/22 03:22:05;;;;;;;0.30;0.13;;;15.80;72.20;;;;;;2371946;53;20989;-72
2020/12/22 03:24:32;;;;;;;0.35;0.20;;;15.80;71.90;;;;;;2372086;53;20993;-72
2020/12/22 03:27:01;;;;;;;0.60;0.30;;;15.80;72.00;;;;;;2363954;53;20995;-72
2020/12/22 03:29:28;;;;;;;0.47;0.20;;;15.80;72.10;;;;;;2322825;55;20983;-73
2020/12/22 03:31:55;;;;;;;1.48;0.30;;;15.80;71.90;;;;;;2577060;53;21877;-74
2020/12/22 03:34:21;;;;;;;0.55;0.20;;;15.80;71.60;;;;;;2615884;52;20942;-72
2020/12/22 03:36:51;;;;;;;1.20;0.30;;;15.80;71.90;;;;;;2371910;53;20949;-72
2020/12/22 03:39:18;;;;;;;0.85;0.30;;;15.80;71.30;;;;;;2579956;52;20981;-72
2020/12/22 03:41:44;;;;;;;0.13;0.10;;;15.80;71.70;;;;;;2362648;53;21923;-72
2020/12/22 03:44:12;;;;;;;1.92;0.28;;;15.80;71.50;;;;;;2374309;53;21431;-72
2020/12/22 03:46:39;;;;;;;0.37;0.20;;;15.80;71.90;;;;;;2350616;53;21443;-72
2020/12/22 03:49:08;;;;;;;0.47;0.28;;;15.80;72.20;;;;;;2371871;53;21538;-72
2020/12/22 03:51:35;;;;;;;0.22;0.13;;;15.80;72.00;;;;;;2624217;52;21525;-73
2020/12/22 03:54:06;;;;;;;0.28;0.20;;;15.80;72.20;;;;;;2372007;53;21005;-72
2020/12/22 03:56:34;;;;;;;0.45;0.20;;;15.90;71.50;;;;;;2364559;53;20969;-72
2020/12/22 03:59:01;;;;;;;1.30;0.37;;;15.80;71.90;;;;;;2324178;54;20926;-72
2020/12/22 04:01:29;;;;;;;0.30;0.20;;;15.90;71.90;;;;;;2341680;53;20929;-72
2020/12/22 04:03:56;;;;;;;2.67;0.30;;;15.90;71.70;;;;;;2346491;53;21018;-73
2020/12/22 04:06:22;;;;;;;0.47;0.30;;;15.90;71.70;;;;;;2370474;53;20993;-72
2020/12/22 04:08:53;;;;;;;2.00;0.28;;;15.90;71.90;;;;;;2596337;52;21893;-72
2020/12/22 04:11:21;;;;;;;0.98;0.35;;;15.90;71.50;;;;;;2623997;52;21726;-72
2020/12/22 04:13:47;;;;;;;0.37;0.25;;;15.90;71.80;;;;;;2367819;53;21034;-71
2020/12/22 04:16:15;;;;;;;0.82;0.20;;;15.90;71.20;;;;;;2339021;53;21777;-72
2020/12/22 04:18:42;;;;;;;0.52;0.20;;;15.90;71.50;;;;;;2360683;53;21037;-71
2020/12/22 04:21:08;;;;;;;0.20;0.20;;;15.90;71.40;;;;;;2591417;52;21017;-72
2020/12/22 04:23:40;;;;;;;0.37;0.25;;;15.90;71.50;;;;;;2610211;52;20963;-72
2020/12/22 04:26:07;;;;;;;0.93;0.20;;;15.90;71.40;;;;;;2611211;52;21518;-72
2020/12/22 04:28:35;;;;;;;0.50;0.20;;;15.90;71.40;;;;;;2371343;53;20965;-72
2020/12/22 04:31:02;;;;;;;0.75;0.25;;;15.90;72.00;;;;;;2623780;52;20954;-72
2020/12/22 04:33:29;;;;;;;0.43;0.20;;;15.90;71.60;;;;;;2352895;53;20995;-73
2020/12/22 04:35:55;;;;;;;0.82;0.30;;;15.90;71.60;;;;;;2622368;52;20980;-72
2020/12/22 04:38:22;;;;;;;0.50;0.20;;;15.90;71.40;;;;;;2371771;53;20930;-72
2020/12/22 04:40:49;;;;;;;0.73;0.28;;;16.00;71.50;;;;;;2624410;52;21653;-71
2020/12/22 04:43:16;;;;;;;0.43;0.20;;;16.00;71.40;;;;;;2624604;52;21736;-71
2020/12/22 04:45:42;;;;;;;0.70;0.20;;;16.00;71.60;;;;;;2371415;53;21384;-72
2020/12/22 04:48:09;;;;;;;0.70;0.20;;;16.00;71.10;;;;;;2371249;53;20942;-72
2020/12/22 04:50:36;;;;;;;0.35;0.13;;;16.00;71.50;;;;;;2624733;52;21553;-72
2020/12/22 04:53:03;;;;;;;0.85;0.30;;;16.00;71.40;;;;;;2371775;53;21376;-73
2020/12/22 04:55:32;;;;;;;0.45;0.22;;;16.00;71.60;;;;;;2624004;52;21754;-73
2020/12/22 04:58:00;;;;;;;0.60;0.20;;;16.00;71.60;;;;;;2372001;53;20980;-73
2020/12/22 05:00:26;;;;;;;0.10;0.10;;;16.00;71.60;;;;;;2582876;52;21001;-71
2020/12/22 05:02:56;;;;;;;0.35;0.20;;;16.00;71.40;;;;;;2362371;53;20934;-72
2020/12/22 05:05:23;;;;;;;0.98;0.40;;;16.00;71.10;;;;;;2599739;52;21096;-72
2020/12/22 05:07:49;;;;;;;0.37;0.20;;;16.00;71.50;;;;;;2622186;52;21474;-71
2020/12/22 05:10:16;;;;;;;0.43;0.17;;;16.10;71.50;;;;;;2347959;53;21403;-71
2020/12/22 05:12:42;;;;;;;1.48;0.30;;;16.10;71.10;;;;;;2371334;53;21038;-71
2020/12/22 05:15:10;;;;;;;0.32;0.15;;;16.10;71.60;;;;;;2337674;54;21013;-71
2020/12/22 05:17:46;;;;;;;0.52;0.25;;;16.10;71.80;;;;;;2344438;53;21007;-72
2020/12/22 05:20:15;;;;;;;0.77;0.28;;;16.10;71.00;;;;;;2348762;53;20948;-71
2020/12/22 05:22:46;;;;;;;0.35;0.20;;;16.10;71.40;;;;;;2365986;53;21003;-71
2020/12/22 05:25:19;;;;;;;0.62;0.30;;;16.10;71.50;;;;;;2371425;53;21005;-72
2020/12/22 05:27:47;;;;;;;0.98;0.10;;;16.10;71.10;;;;;;2371681;53;21708;-71
2020/12/22 05:30:16;;;;;;;0.68;0.30;;;16.20;71.50;;;;;;2370720;53;20946;-71
2020/12/22 05:32:43;;;;;;;0.47;0.20;;;16.20;71.30;;;;;;2620442;52;21450;-72
2020/12/22 05:35:13;;;;;;;1.67;0.60;;;16.20;71.00;;;;;;2351925;54;21428;-71
2020/12/22 05:37:42;;;;;;;0.77;0.22;;;16.10;71.20;;;;;;2590662;53;21050;-72
2020/12/22 05:40:11;;;;;;;0.52;0.20;;;16.10;71.20;;;;;;2353586;53;20957;-71
2020/12/22 05:42:37;;;;;;;0.47;0.20;;;16.20;71.50;;;;;;2624337;52;20989;-73
2020/12/22 05:45:05;;;;;;;0.88;0.35;;;16.20;71.10;;;;;;2371468;53;21080;-73
2020/12/22 05:47:31;;;;;;;0.90;0.28;;;16.20;71.00;;;;;;2612416;52;20999;-72
2020/12/22 05:49:59;;;;;;;1.17;0.40;;;16.20;71.20;;;;;;2358005;53;20978;-72
2020/12/22 05:52:27;;;;;;;0.95;0.30;;;16.20;71.20;;;;;;2350219;53;21488;-71
2020/12/22 05:54:57;;;;;;;1.00;0.35;;;16.10;71.40;;;;;;2580585;52;20885;-72
2020/12/22 05:57:30;;;;;;;0.60;0.20;;;16.20;71.30;;;;;;2611170;52;20930;-72
2020/12/22 05:59:57;;;;;;;0.65;0.30;;;16.20;71.40;;;;;;2360700;53;20947;-73
2020/12/22 06:02:30;;;;;;;1.58;0.22;;;16.20;70.90;;;;;;2346701;53;21389;-72
2020/12/22 06:04:58;;;;;;;0.32;0.20;;;16.20;70.90;;;;;;2619288;52;20902;-73
2020/12/22 06:07:26;;;;;;;0.50;0.20;;;16.20;71.40;;;;;;2371918;53;21870;-72
2020/12/22 06:09:56;;;;;;;0.47;0.20;;;16.20;71.20;;;;;;2349461;53;20919;-72
2020/12/22 06:12:23;;;;;;;1.08;0.30;;;16.20;71.30;;;;;;2350379;53;21658;-72
2020/12/22 06:14:51;;;;;;;0.30;0.20;;;16.20;71.10;;;;;;2582185;52;20941;-72
2020/12/22 06:17:19;;;;;;;0.62;0.20;;;16.20;71.20;;;;;;2363208;53;20993;-73
2020/12/22 06:19:45;;;;;;;0.30;0.20;;;16.20;71.30;;;;;;2344934;54;21022;-72
2020/12/22 06:22:18;;;;;;;0.43;0.25;;;16.20;71.30;;;;;;2352940;53;20993;-72
2020/12/22 06:24:45;;;;;;;0.43;0.20;;;16.20;71.20;;;;;;2608941;52;21340;-73
2020/12/22 06:27:14;;;;;;;0.57;0.20;;;16.20;71.40;;;;;;2371687;53;21041;-72
2020/12/22 06:29:43;;;;;;;1.12;0.30;;;16.20;71.20;;;;;;2366211;53;20979;-73
2020/12/22 06:32:28;;;;;;;0.57;0.40;;;16.30;70.50;;;;;;2579763;52;21460;-72
2020/12/22 06:34:56;;;;;;;0.60;0.25;;;16.20;69.80;;;;;;2374544;53;20946;-72
2020/12/22 06:37:44;;;;;;;0.68;0.25;;;16.20;71.00;;;;;;2590560;52;20974;-72
2020/12/22 06:40:11;;;;;;;0.80;0.30;;;16.30;70.40;;;;;;2336152;54;21001;-72
2020/12/22 06:42:47;;;;;;;0.85;0.30;;;16.30;71.20;;;;;;2354832;53;20942;-73
2020/12/22 06:45:36;;;;;;;0.45;0.20;;;16.30;70.50;;;;;;2624426;52;21005;-72
2020/12/22 06:48:02;;;;;;;0.43;0.20;;;16.30;70.40;;;;;;2624377;52;21490;-73
2020/12/22 06:50:39;;;;;;;0.40;0.20;;;16.20;70.90;;;;;;2375365;53;21045;-73
2020/12/22 06:53:06;;;;;;;0.28;0.17;;;16.30;70.60;;;;;;2350591;53;20950;-73
2020/12/22 06:55:51;;;;;;;0.75;0.30;;;16.30;70.90;;;;;;2370635;53;20942;-72
2020/12/22 06:58:44;;;;;;;0.70;0.30;;;16.30;70.70;;;;;;2620151;52;21034;-71
2020/12/22 07:01:30;;;;;;;0.73;0.28;;;16.30;70.70;;;;;;2356460;53;20948;-72
2020/12/22 07:04:20;;;;;;;2.00;0.40;;;16.30;69.90;;;;;;2352384;54;21001;-72
2020/12/22 07:06:58;;;;;;;0.57;0.30;;;16.30;70.50;;;;;;2352130;53;20995;-72
2020/12/22 07:09:35;;;;;;;0.62;0.20;;;16.30;70.80;;;;;;2624025;52;20990;-71
2020/12/22 07:12:35;;;;;;;0.62;0.30;;;16.30;69.80;;;;;;2603871;52;20948;-71
2020/12/22 07:15:02;;;;;;;1.20;0.20;;;16.30;70.10;;;;;;2622413;52;20981;-72
2020/12/22 07:17:29;;;;;;;0.20;0.20;;;16.30;70.30;;;;;;2620128;52;20984;-71
2020/12/22 07:19:55;;;;;;;1.08;0.32;;;16.30;70.80;;;;;;2346376;53;20912;-71
2020/12/22 07:22:33;;;;;;;1.40;0.30;;;16.30;70.60;;;;;;2363607;53;20958;-73
2020/12/22 07:25:01;;;;;;;0.57;0.30;;;16.30;70.20;;;;;;2352704;53;21827;-73
2020/12/22 07:27:28;;;;;;;1.12;0.40;;;16.30;70.60;;;;;;2371104;53;20910;-73
2020/12/22 07:29:54;;;;;;;1.83;0.50;;;16.40;70.60;;;;;;2370710;53;21044;-71
2020/12/22 07:32:22;;;;;;;0.88;0.28;;;16.40;70.80;;;;;;2371301;53;20957;-74
2020/12/22 07:34:49;;;;;;;2.05;0.30;;;16.40;70.60;;;;;;2355517;53;20959;-73
2020/12/22 07:37:16;;;;;;;1.08;0.50;;;16.40;70.40;;;;;;2347784;53;21039;-73
2020/12/22 07:39:43;;;;;;;0.73;0.25;;;16.40;70.70;;;;;;2622750;52;20973;-72
2020/12/22 07:42:24;;;;;;;0.50;0.30;;;16.40;70.80;;;;;;2357337;53;21003;-73
2020/12/22 07:44:53;;;;;;;2.62;0.32;;;16.40;70.30;;;;;;2369123;53;20945;-73
2020/12/22 07:47:25;;;;;;;1.15;0.40;;;16.40;70.80;;;;;;2373544;53;20975;-72
2020/12/22 07:49:52;;;;;;;2.05;0.50;;;16.40;70.40;;;;;;2351689;53;21017;-73
2020/12/22 07:52:21;;;;;;;0.88;0.30;;;16.40;69.80;;;;;;2371907;53;20977;-73
2020/12/22 07:54:57;;;;;;;1.60;0.52;;;16.50;70.00;;;;;;2615136;52;21048;-73
2020/12/22 07:57:24;;;;;;;2.53;1.00;;;16.50;69.50;;;;;;2356170;53;20997;-73
2020/12/22 07:59:51;;;;;;;2.22;0.68;;;16.50;70.00;;;;;;2615226;52;21004;-72
2020/12/22 08:02:25;;;;;;;2.60;1.00;;;16.50;70.30;;;;;;2359489;53;21037;-72
2020/12/22 08:04:53;;;;;;;2.37;0.82;;;16.50;70.00;;;;;;2599374;52;20951;-73
2020/12/22 08:07:20;;;;;;;1.90;0.60;;;16.50;70.30;;;;;;2367129;53;21010;-72
2020/12/22 08:09:49;;;;;;;2.33;0.50;;;16.50;70.40;;;;;;2624216;52;20934;-72
2020/12/22 08:12:16;;;;;;;1.83;0.80;;;16.50;70.30;;;;;;2372255;53;21021;-73
2020/12/22 08:14:42;;;;;;;1.40;0.50;;;16.50;70.60;;;;;;2357134;53;20931;-72
2020/12/22 08:17:16;;;;;;;2.28;0.60;;;16.50;70.50;;;;;;2617499;52;20958;-73
2020/12/22 08:19:42;;;;;;;2.33;0.70;;;16.50;70.10;;;;;;2623395;52;20914;-72
2020/12/22 08:22:12;;;;;;;1.17;0.50;;;16.50;70.50;;;;;;2335201;54;21809;-72
2020/12/22 08:24:41;;;;;;;1.20;0.40;;;16.40;70.50;;;;;;2588975;52;20989;-72
2020/12/22 08:27:08;;;;;;;1.10;0.37;;;16.50;70.40;;;;;;2370673;53;21691;-72
2020/12/22 08:29:34;;;;;;;0.57;0.30;;;16.50;70.50;;;;;;2363764;53;20936;-72
2020/12/22 08:32:02;;;;;;;0.32;0.20;;;16.50;70.90;;;;;;2595775;52;21031;-72
2020/12/22 08:34:29;;;;;;;1.10;0.40;;;16.50;70.50;;;;;;2356947;53;20950;-72
2020/12/22 08:36:55;;;;;;;1.08;0.30;;;16.50;70.60;;;;;;2371343;53;21569;-73
2020/12/22 08:39:27;;;;;;;0.47;0.30;;;16.50;70.80;;;;;;2343091;53;20989;-73
2020/12/22 08:41:57;;;;;;;0.62;0.30;;;16.50;70.10;;;;;;2362678;53;21001;-72
2020/12/22 08:44:26;;;;;;;1.05;0.37;;;16.50;70.00;;;;;;2350949;53;20955;-72
2020/12/22 08:46:54;;;;;;;0.75;0.35;;;16.50;70.20;;;;;;2361648;53;20951;-71
2020/12/22 08:49:21;;;;;;;1.45;0.55;;;16.50;70.40;;;;;;2347364;53;21353;-73
2020/12/22 08:51:49;;;;;;;2.72;0.50;;;16.60;70.10;;;;;;2604228;52;20936;-73
2020/12/22 08:54:15;;;;;;;1.40;0.40;;;16.60;70.20;;;;;;2610200;52;21416;-72
2020/12/22 08:56:45;;;;;;;1.37;0.40;;;16.60;70.40;;;;;;2348300;54;20946;-71
2020/12/22 08:59:12;;;;;;;1.50;0.30;;;16.60;70.60;;;;;;2351751;54;20938;-72
2020/12/22 09:01:43;;;;;;;1.05;0.40;;;16.60;70.50;;;;;;2369997;53;21091;-72
2020/12/22 09:04:10;;;;;;;1.10;0.37;;;16.70;69.90;;;;;;2589539;53;20983;-73
2020/12/22 09:06:47;;;;;;;1.15;0.30;;;16.70;70.60;;;;;;2346796;53;20924;-73
2020/12/22 09:09:22;;;;;;;2.80;0.62;;;16.70;69.80;;;;;;2351360;53;21005;-72
2020/12/22 09:11:49;;;;;;;0.88;0.30;;;16.70;69.80;;;;;;2370585;53;20941;-73
2020/12/22 09:14:20;;;;;;;1.33;0.35;;;16.70;69.50;;;;;;2353744;53;21031;-72
2020/12/22 09:16:54;;;;;;;0.93;0.40;;;16.80;70.20;;;;;;2365365;53;20937;-73
2020/12/22 09:19:28;;;;;;;4.03;0.50;;;16.80;69.60;;;;;;2375630;53;20945;-73
2020/12/22 09:22:00;;;;;;;1.55;0.57;;;16.80;69.60;;;;;;2597927;52;20986;-73
2020/12/22 09:24:29;;;;;;;0.32;0.22;;;16.80;69.60;;;;;;2371206;53;21900;-72
2020/12/22 09:27:05;;;;;;;0.82;0.35;;;16.80;70.30;;;;;;2360601;53;20955;-72
2020/12/22 09:29:31;;;;;;;1.42;0.50;;;16.90;69.90;;;;;;2363187;53;21940;-73
2020/12/22 09:31:58;;;;;;;0.65;0.30;;;16.90;70.20;;;;;;2350828;54;21042;-72
2020/12/22 09:34:26;;;;;;;0.98;0.30;;;16.90;69.90;;;;;;2374371;53;21053;-72
2020/12/22 09:36:54;;;;;;;2.65;0.40;;;16.90;69.80;;;;;;2348626;54;20954;-71
2020/12/22 09:39:20;;;;;;;1.25;0.40;;;16.90;70.20;;;;;;2601966;52;20971;-72
2020/12/22 09:41:47;;;;;;;0.93;0.30;;;16.90;69.90;;;;;;2356327;53;21051;-73
2020/12/22 09:44:14;;;;;;;0.70;0.30;;;16.90;70.20;;;;;;2356731;53;20957;-72
2020/12/22 09:46:40;;;;;;;1.55;0.43;;;16.90;70.30;;;;;;2355013;53;21009;-71
2020/12/22 09:49:07;;;;;;;1.05;0.40;;;16.90;69.80;;;;;;2623473;52;20953;-72
2020/12/22 09:51:34;;;;;;;1.10;0.40;;;16.90;70.50;;;;;;2349840;53;21152;-70
2020/12/22 09:54:12;;;;;;;1.55;0.40;;;16.90;70.40;;;;;;2566340;53;20996;-72
2020/12/22 09:56:40;;;;;;;0.32;0.25;;;16.90;70.40;;;;;;2614719;52;20966;-73
2020/12/22 09:59:07;;;;;;;0.77;0.30;;;17.00;70.80;;;;;;2360509;53;21444;-72
2020/12/22 10:01:33;;;;;;;1.90;0.40;;;17.00;70.50;;;;;;2361550;53;21480;-72
2020/12/22 10:04:00;;;;;;;0.82;0.35;;;16.90;70.30;;;;;;2340610;53;20982;-73
2020/12/22 10:06:26;;;;;;;0.35;0.20;;;16.90;70.50;;;;;;2596334;52;20941;-72
2020/12/22 10:08:53;;;;;;;1.25;0.40;;;16.90;70.50;;;;;;2362423;53;21011;-72
2020/12/22 10:11:26;;;;;;;0.43;0.30;;;16.90;70.60;;;;;;2358899;53;21089;-72
2020/12/22 10:13:53;;;;;;;1.23;0.30;;;17.00;71.00;;;;;;2325845;54;21772;-71
2020/12/22 10:16:21;;;;;;;0.57;0.32;;;17.00;70.80;;;;;;2567938;53;21694;-73
2020/12/22 10:18:48;;;;;;;0.80;0.35;;;17.00;70.40;;;;;;2336637;54;21004;-73
2020/12/22 10:21:16;;;;;;;1.27;0.43;;;17.00;70.10;;;;;;2320125;54;21057;-73
2020/12/22 10:23:43;;;;;;;1.17;0.50;;;16.90;70.50;;;;;;2340612;54;21016;-72
2020/12/22 10:26:14;;;;;;;1.62;0.62;;;17.00;70.70;;;;;;2343688;54;21017;-72
2020/12/22 10:28:41;;;;;;;1.23;0.50;;;17.00;70.70;;;;;;2557000;53;21000;-72
2020/12/22 10:31:20;;;;;;;1.42;0.47;;;17.00;70.80;;;;;;2563229;53;21769;-72
2020/12/22 10:33:47;;;;;;;0.93;0.40;;;17.00;70.40;;;;;;2318094;55;20952;-72
2020/12/22 10:36:17;;;;;;;0.75;0.30;;;17.00;70.50;;;;;;2317306;54;21020;-71
2020/12/22 10:38:50;;;;;;;0.98;0.40;;;17.00;71.00;;;;;;2561791;53;21011;-72
2020/12/22 10:41:18;;;;;;;0.95;0.40;;;17.00;71.20;;;;;;2340975;53;21768;-72
2020/12/22 10:43:44;;;;;;;0.93;0.40;;;17.10;71.10;;;;;;2586630;53;21019;-71
2020/12/22 10:46:11;;;;;;;1.33;0.50;;;17.10;71.30;;;;;;2343179;53;20940;-72
2020/12/22 10:48:37;;;;;;;0.60;0.40;;;17.10;71.20;;;;;;2342832;53;20992;-73
2020/12/22 10:51:04;;;;;;;1.65;0.60;;;17.20;70.60;;;;;;2344284;53;20933;-73
2020/12/22 10:53:30;;;;;;;1.02;0.40;;;17.20;70.90;;;;;;2589787;53;20996;-72
2020/12/22 10:55:59;;;;;;;0.50;0.28;;;17.20;71.20;;;;;;2343259;53;20937;-72
2020/12/22 10:58:26;;;;;;;1.02;0.30;;;17.30;71.40;;;;;;2589634;53;20921;-72
2020/12/22 11:00:53;;;;;;;1.30;0.50;;;17.30;72.30;;;;;;2555231;53;20945;-71
2020/12/22 11:03:20;;;;;;;0.88;0.35;;;17.30;71.40;;;;;;2343568;54;20944;-71
2020/12/22 11:06:17;;;;;;;0.98;0.40;;;17.30;71.20;;;;;;2584483;53;21009;-71
2020/12/22 11:08:44;;;;;;;1.12;0.40;;;17.40;71.00;;;;;;2611905;52;21007;-72
2020/12/22 11:11:12;;;;;;;1.15;0.45;;;17.30;70.80;;;;;;2371081;53;21001;-72
2020/12/22 11:13:38;;;;;;;1.23;0.50;;;17.30;71.10;;;;;;2589467;53;20949;-72
2020/12/22 11:16:07;;;;;;;1.48;0.43;;;17.30;71.00;;;;;;2575013;53;21857;-71
2020/12/22 11:18:34;;;;;;;1.42;0.40;;;17.40;71.40;;;;;;2576891;52;21462;-72
2020/12/22 11:21:02;;;;;;;1.08;0.50;;;17.30;71.00;;;;;;2577484;53;20977;-71
2020/12/22 11:23:40;;;;;;;1.00;0.30;;;17.40;71.60;;;;;;2544537;53;20940;-72
2020/12/22 11:26:10;;;;;;;1.10;0.50;;;17.40;71.70;;;;;;2566581;53;20931;-71
2020/12/22 11:28:39;;;;;;;1.10;0.40;;;17.40;71.90;;;;;;2559145;53;21863;-72
2020/12/22 11:31:06;;;;;;;0.77;0.30;;;17.40;72.00;;;;;;2349373;53;20926;-72
2020/12/22 11:33:35;;;;;;;0.80;0.40;;;17.40;71.70;;;;;;2624040;52;21092;-72
2020/12/22 11:36:02;;;;;;;1.08;0.30;;;17.40;71.80;;;;;;2623949;52;20942;-72
2020/12/22 11:38:32;;;;;;;0.85;0.40;;;17.40;72.10;;;;;;2367176;53;21522;-72
2020/12/22 11:40:59;;;;;;;1.05;0.45;;;17.40;72.10;;;;;;2337625;54;20976;-72
2020/12/22 11:43:25;;;;;;;0.65;0.40;;;17.50;72.10;;;;;;2353470;53;21012;-72
2020/12/22 11:45:52;;;;;;;0.93;0.47;;;17.50;71.90;;;;;;2351264;53;21011;-72
2020/12/22 11:48:19;;;;;;;1.58;0.40;;;17.50;72.20;;;;;;2576482;52;20954;-72
2020/12/22 11:50:46;;;;;;;1.20;0.50;;;17.50;72.40;;;;;;2371032;53;20930;-72
2020/12/22 11:53:12;;;;;;;1.02;0.40;;;17.40;72.10;;;;;;2622982;52;20910;-72
2020/12/22 11:55:39;;;;;;;1.35;0.40;;;17.50;72.00;;;;;;2370740;53;21725;-72
2020/12/22 11:58:06;;;;;;;1.25;0.50;;;17.50;72.00;;;;;;2371222;53;20997;-71
2020/12/22 12:00:32;;;;;;;1.33;0.50;;;17.50;72.10;;;;;;2371440;53;20994;-72
2020/12/22 12:03:01;;;;;;;1.48;0.60;;;17.50;72.20;;;;;;2624238;52;21693;-71
2020/12/22 12:05:28;;;;;;;2.35;0.60;;;17.50;72.30;;;;;;2624184;52;20918;-72
2020/12/22 12:07:54;;;;;;;4.15;1.30;;;17.50;72.00;;;;;;2374491;53;21510;-71
2020/12/22 12:10:21;;;;;;;2.62;0.93;;;17.50;72.10;;;;;;2348321;53;20954;-71
2020/12/22 12:12:47;;;;;;;3.28;0.73;;;17.50;71.90;;;;;;2351610;53;20965;-71
2020/12/22 12:15:14;;;;;;;1.77;0.32;;;17.50;72.10;;;;;;2354474;53;20965;-73
2020/12/22 12:17:40;;;;;;;0.80;0.40;;;17.60;72.50;;;;;;2371399;53;25109;-72
2020/12/22 12:20:08;;;;;;;1.05;0.40;;;17.50;72.60;;;;;;2350127;53;21486;-72
2020/12/22 12:22:34;;;;;;;1.25;0.40;;;17.60;73.00;;;;;;2611229;52;21248;-72
2020/12/22 12:25:04;;;;;;;1.15;0.60;;;17.60;72.90;;;;;;2356365;53;21450;-71
2020/12/22 12:27:31;;;;;;;1.52;0.50;;;17.60;72.90;;;;;;2371333;53;21399;-71
2020/12/22 12:29:57;;;;;;;1.58;0.52;;;17.70;73.10;;;;;;2371681;53;20898;-72
2020/12/22 12:32:28;;;;;;;0.75;0.32;;;17.70;72.60;;;;;;2372047;53;20965;-72
2020/12/22 12:34:58;;;;;;;1.40;0.60;;;17.70;72.70;;;;;;2363267;53;21019;-72
2020/12/22 12:37:24;;;;;;;1.15;0.40;;;17.70;72.50;;;;;;2360664;53;20918;-71
2020/12/22 12:39:54;;;;;;;0.95;0.40;;;17.80;73.00;;;;;;2623598;52;21394;-72
2020/12/22 12:42:21;;;;;;;1.75;0.50;;;17.80;72.70;;;;;;2320175;54;20964;-72
2020/12/22 12:44:48;;;;;;;1.30;0.55;;;17.80;72.50;;;;;;2343112;53;20917;-72
2020/12/22 12:47:17;;;;;;;1.20;0.50;;;17.80;71.90;;;;;;2558750;52;20926;-72
2020/12/22 12:49:44;;;;;;;1.05;0.40;;;17.80;72.00;;;;;;2557874;52;21411;-72
2020/12/22 12:52:11;;;;;;;1.45;0.40;;;17.80;72.20;;;;;;2587893;53;21050;-72
2020/12/22 12:54:38;;;;;;;1.33;0.50;;;17.80;72.20;;;;;;2343424;54;21078;-72